Weather reports worldwide

Advertisment
Oestergarnsholm, Sweden (2598): temperature & dewpoint: 04.07.2020 11:00:00 - 10.07.2020 11:00:00 (CEST)Oestergarnsholm, Sweden (2598): wind speed & gusts: 04.07.2020 11:00:00 - 10.07.2020 11:00:00 (CEST)Oestergarnsholm, Sweden (2598): wind direction: 04.07.2020 11:00:00 - 10.07.2020 11:00:00 (CEST)
Date & Time tt [°C] td [°C] ff [km/h] ff [kn] fx [km/h] fx [kn] dd
10.07.2020 11:00:00 16,0 13,1 10 6 13 7 E
10.07.2020 10:00:00 15,5 12,6 10 5 12 6 E
10.07.2020 09:00:00 15,3 11,9 8 5 10 6 E
10.07.2020 08:00:00 14,9 11,3 8 4 11 6 ESE
10.07.2020 07:00:00 14,4 11,4 8 5 10 5 ESE
10.07.2020 06:00:00 14,2 12,6 6 4 10 5 SE
10.07.2020 05:00:00 12,5 11,4 8 4 14 8 SSE
10.07.2020 04:00:00 12,1 11,3 11 6 15 8 SSE
10.07.2020 03:00:00 11,5 10,7 10 5 14 8 SSE
10.07.2020 02:00:00 11,8 11,0 13 7 17 9 S
10.07.2020 01:00:00 12,2 11,1 14 8 18 10 S
10.07.2020 00:00:00 12,4 11,1 16 9 23 12 S
09.07.2020 23:00:00 12,5 11,1 19 10 24 13 S
09.07.2020 22:00:00 12,7 10,8 18 10 28 15 SSW
09.07.2020 21:00:00 12,9 10,6 22 12 31 17 SSW
09.07.2020 20:00:00 13,2 10,7 25 13 36 19 S
09.07.2020 19:00:00 13,6 10,8 28 15 40 22 SSW
09.07.2020 18:00:00 14,5 10,3 32 17 39 21 SSW
09.07.2020 17:00:00 15,0 10,8 33 18 42 23 SSW
09.07.2020 16:00:00 15,2 10,8 30 16 40 22 SSW
09.07.2020 15:00:00 15,5 10,7 33 18 41 22 SSW
09.07.2020 14:00:00 15,5 10,7 29 16 40 22 SSW
09.07.2020 13:00:00 15,9 10,4 31 17 39 21 SSW
09.07.2020 12:00:00 16,1 10,2 31 17 38 21 SSW
09.07.2020 11:00:00 15,7 10,2 26 14 36 19 S
09.07.2020 10:00:00 15,0 10,4 20 11 28 15 S
09.07.2020 09:00:00 14,8 9,8 14 7 21 11 SW
09.07.2020 08:00:00 15,5 8,7 14 8 24 13 W
09.07.2020 07:00:00 14,3 9,3 20 11 26 14 W
09.07.2020 06:00:00 12,6 9,2 16 8 23 13 W
09.07.2020 05:00:00 11,1 8,8 16 9 23 13 WSW
09.07.2020 04:00:00 9,9 8,0 16 9 19 10 WSW
09.07.2020 03:00:00 9,8 8,1 14 8 18 10 WSW
09.07.2020 02:00:00 10,3 7,7 15 8 18 10 WSW
09.07.2020 01:00:00 10,9 7,8 14 8 16 9 WSW
09.07.2020 00:00:00 10,6 7,7 13 7 16 9 WSW
08.07.2020 23:00:00 11,4 7,9 12 6 16 9 SW
08.07.2020 22:00:00 11,6 8,3 10 6 18 10 WSW
08.07.2020 21:00:00 13,5 8,3 11 6 23 12 W
08.07.2020 20:00:00 15,6 7,6 20 11 29 16 W
08.07.2020 19:00:00 13,8 10,0 23 13 31 17 SSW
08.07.2020 18:00:00 14,2 10,0 24 13 35 19 SSW
08.07.2020 17:00:00 15,1 8,8 22 12 30 16 SW
08.07.2020 16:00:00 15,6 7,1 21 12 37 20 W
08.07.2020 15:00:00 15,6 6,6 29 16 39 21 W
08.07.2020 14:00:00 15,2 8,4 30 16 48 26 WSW
08.07.2020 13:00:00 15,3 7,1 34 18 49 26 SW
08.07.2020 12:00:00 13,8 8,4 31 17 44 24 SSW
08.07.2020 11:00:00 13,2 8,7 37 20 45 24 SSW
08.07.2020 10:00:00 13,9 8,7 29 16 39 21 SSW
08.07.2020 09:00:00 14,0 8,2 28 15 34 18 SSW
08.07.2020 08:00:00 12,7 8,4 23 13 29 16 SSW
08.07.2020 07:00:00 11,5 8,4 19 10 25 13 SW
08.07.2020 06:00:00 11,6 8,6 17 9 21 11 SW
08.07.2020 05:00:00 11,4 9,5 16 8 18 10 SW
08.07.2020 04:00:00 11,5 8,9 13 7 19 10 SW
08.07.2020 03:00:00 11,6 8,5 14 8 18 10 SW
08.07.2020 02:00:00 12,2 8,3 13 7 23 12 SW
08.07.2020 01:00:00 12,5 9,3 14 8 33 18 SW
08.07.2020 00:00:00 12,5 10,0 21 12 32 18 SW
07.07.2020 23:00:00 13,1 9,4 26 14 35 19 SW
07.07.2020 22:00:00 14,0 8,8 25 14 38 20 SW
07.07.2020 21:00:00 15,0 8,2 26 14 46 25 SW
07.07.2020 20:00:00 16,6 6,4 32 17 41 22 SW
07.07.2020 19:00:00 14,9 10,1 21 12 36 19 SSW
07.07.2020 18:00:00 15,7 10,5 26 14 34 18 SSW
07.07.2020 17:00:00 15,3 9,6 19 11 33 18 SSW
07.07.2020 16:00:00 20,0 5,6 26 14 34 19 W
07.07.2020 15:00:00 19,1 5,9 26 14 36 19 W
07.07.2020 14:00:00 18,0 6,8 25 14 40 22 W
07.07.2020 13:00:00 18,5 8,2 25 14 37 20 W
07.07.2020 12:00:00 18,2 9,0 24 13 39 21 W
07.07.2020 11:00:00 18,6 8,3 28 15 42 23 W
07.07.2020 10:00:00 17,1 9,0 26 14 39 21 W
07.07.2020 09:00:00 16,6 9,5 27 15 40 22 W
07.07.2020 08:00:00 15,8 9,7 28 15 41 22 W
07.07.2020 07:00:00 14,6 10,6 25 13 34 18 WSW
07.07.2020 06:00:00 13,3 11,2 27 15 36 19 WSW
07.07.2020 05:00:00 13,1 10,5 22 12 35 19 WSW
07.07.2020 04:00:00 13,2 10,2 23 13 39 21 WSW
07.07.2020 03:00:00 13,7 10,5 24 13 40 21 WSW
07.07.2020 02:00:00 13,9 10,5 31 17 44 24 WSW
07.07.2020 01:00:00 14,2 10,4 34 18 46 25 SW
07.07.2020 00:00:00 13,7 10,1 33 18 44 24 SW
06.07.2020 23:00:00 12,9 9,9 34 19 48 26 SW
06.07.2020 22:00:00 13,4 9,6 34 19 46 25 SW
06.07.2020 21:00:00 12,2 10,3 27 14 37 20 SSW
06.07.2020 20:00:00 13,1 10,5 30 16 45 24 SSW
06.07.2020 19:00:00 13,6 10,4 36 19 44 24 SSW
06.07.2020 18:00:00 14,0 10,4 35 19 50 27 SSW
06.07.2020 17:00:00 14,4 9,8 41 22 52 28 SSW
06.07.2020 16:00:00 14,6 9,6 41 22 50 27 SSW
06.07.2020 15:00:00 15,2 10,2 39 21 54 29 SSW
06.07.2020 14:00:00 15,1 10,3 40 22 50 27 S
06.07.2020 13:00:00 14,7 10,3 44 24 55 30 SSW
06.07.2020 12:00:00 15,1 10,5 43 23 53 29 SSW
06.07.2020 11:00:00 14,4 9,8 44 24 56 31 SSW
06.07.2020 10:00:00 16,2 9,1 44 24 58 31 SW
06.07.2020 09:00:00 15,5 9,4 39 21 50 27 SW
06.07.2020 08:00:00 15,2 9,8 35 19 47 26 SW
06.07.2020 07:00:00 14,2 9,8 35 19 45 25 SW
06.07.2020 06:00:00 13,6 10,2 33 18 44 24 SW
06.07.2020 05:00:00 13,0 10,2 31 17 41 22 SW
06.07.2020 04:00:00 13,2 10,2 28 15 38 21 SW
06.07.2020 03:00:00 13,8 10,2 26 14 44 24 SW
06.07.2020 02:00:00 14,7 10,1 29 16 45 24 SW
06.07.2020 01:00:00 15,2 10,6 34 18 49 26 SW
06.07.2020 00:00:00 14,4 11,5 27 14 41 22 SW
05.07.2020 23:00:00 13,5 12,2 29 16 37 20 SSW
05.07.2020 22:00:00 13,8 13,2 34 18 40 22 SSW
05.07.2020 21:00:00 13,9 13,3 29 15 42 23 SSW
05.07.2020 20:00:00 16,0 13,8 32 18 53 29 SSW
05.07.2020 19:00:00 14,8 13,8 45 24 54 29 SSW
05.07.2020 18:00:00 15,4 13,9 46 25 59 32 SSW
05.07.2020 17:00:00 15,8 14,5 47 25 61 33 SSW
05.07.2020 16:00:00 15,5 15,3 45 25 55 30 S
05.07.2020 15:00:00 15,3 15,1 42 23 51 28 S
05.07.2020 14:00:00 15,2 15,0 36 20 46 25 S
05.07.2020 13:00:00 15,7 14,7 36 19 45 24 S
05.07.2020 12:00:00 16,1 14,6 33 18 41 22 S
05.07.2020 11:00:00 15,9 14,6 27 15 34 19 S
05.07.2020 10:00:00 14,9 14,1 21 11 26 14 SSW
05.07.2020 09:00:00 15,1 14,3 14 7 19 11 SSW
05.07.2020 08:00:00 14,8 14,2 14 7 24 13 SSW
05.07.2020 07:00:00 14,9 14,7 15 8 21 12 SSW
05.07.2020 06:00:00 15,2 15,0 10 5 18 10 SSW
05.07.2020 05:00:00 15,1 15,0 11 6 19 11 SW
05.07.2020 04:00:00 14,8 14,6 13 7 18 10 SW
05.07.2020 03:00:00 13,8 13,6 16 8 23 12 SSW
05.07.2020 02:00:00 13,5 13,3 21 11 25 14 SSW
05.07.2020 01:00:00 13,2 13,0 21 11 27 14 SSW
05.07.2020 00:00:00 13,0 12,8 21 11 27 14 SSW
04.07.2020 23:00:00 12,8 12,6 21 12 28 15 SSW
04.07.2020 22:00:00 12,8 12,6 21 11 28 15 SSW
04.07.2020 21:00:00 13,3 13,1 23 13 30 16 SSW
04.07.2020 20:00:00 13,5 13,3 24 13 33 18 SSW
04.07.2020 19:00:00 13,9 13,7 27 14 33 18 SSW
04.07.2020 18:00:00 14,4 13,6 29 15 39 21 SSW
04.07.2020 17:00:00 15,4 13,4 32 17 48 26 SSW
04.07.2020 16:00:00 15,7 13,5 37 20 48 26 SSW
04.07.2020 15:00:00 16,1 13,8 37 20 47 25 SSW
04.07.2020 14:00:00 15,9 13,9 36 19 48 26 SSW
04.07.2020 13:00:00 15,5 13,5 37 20 45 25 SSW
04.07.2020 12:00:00 15,6 14,0 37 20 49 26 SSW
04.07.2020 11:00:00 15,2 13,9 35 19 48 26 SSW

tt = temperature
td = dewpoint
ff = wind speed
fx = gusts
dd = wind direction

Next stations